sensor_id;sensor_type;location;lat;lon;timestamp;P1;durP1;ratioP1;P2;durP2;ratioP2
2872;SDS011;1444;49.166;7.312;2023-07-24T00:01:31;9.73;;;6.70;;
2872;SDS011;1444;49.166;7.312;2023-07-24T00:03:58;10.50;;;7.07;;
2872;SDS011;1444;49.166;7.312;2023-07-24T00:06:26;11.17;;;7.77;;
2872;SDS011;1444;49.166;7.312;2023-07-24T00:08:53;10.80;;;6.60;;
2872;SDS011;1444;49.166;7.312;2023-07-24T00:11:20;8.30;;;6.07;;
2872;SDS011;1444;49.166;7.312;2023-07-24T00:13:47;12.17;;;7.97;;
2872;SDS011;1444;49.166;7.312;2023-07-24T00:16:14;11.80;;;7.50;;
2872;SDS011;1444;49.166;7.312;2023-07-24T00:18:41;14.87;;;9.33;;
2872;SDS011;1444;49.166;7.312;2023-07-24T00:21:08;8.23;;;6.10;;
2872;SDS011;1444;49.166;7.312;2023-07-24T00:23:37;16.80;;;10.83;;
2872;SDS011;1444;49.166;7.312;2023-07-24T00:26:04;12.17;;;6.27;;
2872;SDS011;1444;49.166;7.312;2023-07-24T00:28:31;11.80;;;7.80;;
2872;SDS011;1444;49.166;7.312;2023-07-24T00:30:58;10.57;;;5.70;;
2872;SDS011;1444;49.166;7.312;2023-07-24T00:33:25;10.40;;;7.43;;
2872;SDS011;1444;49.166;7.312;2023-07-24T00:35:54;12.40;;;9.00;;
2872;SDS011;1444;49.166;7.312;2023-07-24T00:38:22;10.93;;;6.63;;
2872;SDS011;1444;49.166;7.312;2023-07-24T00:40:50;8.50;;;6.90;;
2872;SDS011;1444;49.166;7.312;2023-07-24T00:43:17;10.80;;;8.20;;
2872;SDS011;1444;49.166;7.312;2023-07-24T00:45:44;14.30;;;10.70;;
2872;SDS011;1444;49.166;7.312;2023-07-24T00:48:12;8.83;;;6.87;;
2872;SDS011;1444;49.166;7.312;2023-07-24T00:50:40;17.73;;;10.20;;
2872;SDS011;1444;49.166;7.312;2023-07-24T00:53:08;10.23;;;7.23;;
2872;SDS011;1444;49.166;7.312;2023-07-24T00:55:36;12.37;;;8.60;;
2872;SDS011;1444;49.166;7.312;2023-07-24T00:58:04;8.27;;;6.63;;
2872;SDS011;1444;49.166;7.312;2023-07-24T01:00:32;13.33;;;8.80;;
2872;SDS011;1444;49.166;7.312;2023-07-24T01:02:59;8.30;;;6.43;;
2872;SDS011;1444;49.166;7.312;2023-07-24T01:05:26;12.33;;;7.60;;
2872;SDS011;1444;49.166;7.312;2023-07-24T01:07:53;7.70;;;5.73;;
2872;SDS011;1444;49.166;7.312;2023-07-24T01:10:20;9.23;;;7.13;;
2872;SDS011;1444;49.166;7.312;2023-07-24T01:12:50;14.00;;;9.17;;
2872;SDS011;1444;49.166;7.312;2023-07-24T01:15:26;13.80;;;7.93;;
2872;SDS011;1444;49.166;7.312;2023-07-24T01:17:58;9.43;;;7.53;;
2872;SDS011;1444;49.166;7.312;2023-07-24T01:20:27;10.90;;;7.77;;
2872;SDS011;1444;49.166;7.312;2023-07-24T01:23:03;8.93;;;6.63;;
2872;SDS011;1444;49.166;7.312;2023-07-24T01:28:31;13.20;;;9.10;;
2872;SDS011;1444;49.166;7.312;2023-07-24T01:30:58;15.57;;;8.00;;
2872;SDS011;1444;49.166;7.312;2023-07-24T01:33:24;10.47;;;7.07;;
2872;SDS011;1444;49.166;7.312;2023-07-24T01:35:53;14.43;;;9.17;;
2872;SDS011;1444;49.166;7.312;2023-07-24T01:38:21;11.70;;;8.07;;
2872;SDS011;1444;49.166;7.312;2023-07-24T01:40:50;10.40;;;7.37;;
2872;SDS011;1444;49.166;7.312;2023-07-24T01:43:21;10.70;;;7.50;;
2872;SDS011;1444;49.166;7.312;2023-07-24T01:45:48;14.10;;;9.97;;
2872;SDS011;1444;49.166;7.312;2023-07-24T01:48:15;10.20;;;7.27;;
2872;SDS011;1444;49.166;7.312;2023-07-24T01:50:42;12.03;;;8.20;;
2872;SDS011;1444;49.166;7.312;2023-07-24T01:53:09;8.00;;;5.80;;
2872;SDS011;1444;49.166;7.312;2023-07-24T01:55:36;26.50;;;10.87;;
2872;SDS011;1444;49.166;7.312;2023-07-24T01:58:02;9.83;;;7.00;;
2872;SDS011;1444;49.166;7.312;2023-07-24T02:00:31;8.40;;;6.07;;
2872;SDS011;1444;49.166;7.312;2023-07-24T02:02:58;9.43;;;7.33;;
2872;SDS011;1444;49.166;7.312;2023-07-24T02:05:25;12.33;;;6.60;;
2872;SDS011;1444;49.166;7.312;2023-07-24T02:07:52;11.43;;;7.40;;
2872;SDS011;1444;49.166;7.312;2023-07-24T02:10:19;9.23;;;6.73;;
2872;SDS011;1444;49.166;7.312;2023-07-24T02:12:46;10.47;;;8.03;;
2872;SDS011;1444;49.166;7.312;2023-07-24T02:15:12;13.90;;;8.93;;
2872;SDS011;1444;49.166;7.312;2023-07-24T02:17:41;13.10;;;9.90;;
2872;SDS011;1444;49.166;7.312;2023-07-24T02:20:08;8.00;;;5.33;;
2872;SDS011;1444;49.166;7.312;2023-07-24T02:22:35;13.13;;;9.43;;
2872;SDS011;1444;49.166;7.312;2023-07-24T02:25:02;12.77;;;8.27;;
2872;SDS011;1444;49.166;7.312;2023-07-24T02:27:30;9.47;;;7.17;;
2872;SDS011;1444;49.166;7.312;2023-07-24T02:29:59;9.70;;;7.03;;
2872;SDS011;1444;49.166;7.312;2023-07-24T02:32:26;8.67;;;6.40;;
2872;SDS011;1444;49.166;7.312;2023-07-24T02:34:54;9.87;;;6.23;;
2872;SDS011;1444;49.166;7.312;2023-07-24T02:37:21;10.27;;;7.13;;
2872;SDS011;1444;49.166;7.312;2023-07-24T02:39:48;11.60;;;7.20;;
2872;SDS011;1444;49.166;7.312;2023-07-24T02:42:15;9.60;;;6.70;;
2872;SDS011;1444;49.166;7.312;2023-07-24T02:44:42;11.73;;;8.53;;
2872;SDS011;1444;49.166;7.312;2023-07-24T02:47:09;11.10;;;7.77;;
2872;SDS011;1444;49.166;7.312;2023-07-24T02:49:36;14.27;;;10.40;;
2872;SDS011;1444;49.166;7.312;2023-07-24T02:52:05;10.30;;;6.43;;
2872;SDS011;1444;49.166;7.312;2023-07-24T02:54:32;16.47;;;9.97;;
2872;SDS011;1444;49.166;7.312;2023-07-24T02:56:58;13.90;;;8.40;;
2872;SDS011;1444;49.166;7.312;2023-07-24T02:59:25;13.43;;;6.77;;
2872;SDS011;1444;49.166;7.312;2023-07-24T03:01:52;8.20;;;6.17;;
2872;SDS011;1444;49.166;7.312;2023-07-24T03:04:19;12.57;;;6.97;;
2872;SDS011;1444;49.166;7.312;2023-07-24T03:06:46;11.83;;;8.17;;
2872;SDS011;1444;49.166;7.312;2023-07-24T03:09:14;9.40;;;7.10;;
2872;SDS011;1444;49.166;7.312;2023-07-24T03:11:41;15.10;;;9.33;;
2872;SDS011;1444;49.166;7.312;2023-07-24T03:14:08;8.67;;;6.23;;
2872;SDS011;1444;49.166;7.312;2023-07-24T03:16:35;13.03;;;9.17;;
2872;SDS011;1444;49.166;7.312;2023-07-24T03:19:02;9.90;;;7.83;;
2872;SDS011;1444;49.166;7.312;2023-07-24T03:21:29;10.10;;;7.53;;
2872;SDS011;1444;49.166;7.312;2023-07-24T03:23:55;8.80;;;6.23;;
2872;SDS011;1444;49.166;7.312;2023-07-24T03:26:24;12.53;;;7.27;;
2872;SDS011;1444;49.166;7.312;2023-07-24T03:28:50;10.93;;;7.10;;
2872;SDS011;1444;49.166;7.312;2023-07-24T03:31:17;12.20;;;6.90;;
2872;SDS011;1444;49.166;7.312;2023-07-24T03:33:44;12.13;;;8.10;;
2872;SDS011;1444;49.166;7.312;2023-07-24T03:36:11;9.07;;;6.10;;
2872;SDS011;1444;49.166;7.312;2023-07-24T03:38:38;15.27;;;10.33;;
2872;SDS011;1444;49.166;7.312;2023-07-24T03:41:05;9.30;;;6.60;;
2872;SDS011;1444;49.166;7.312;2023-07-24T03:43:34;10.70;;;8.23;;
2872;SDS011;1444;49.166;7.312;2023-07-24T03:46:02;14.80;;;7.40;;
2872;SDS011;1444;49.166;7.312;2023-07-24T03:48:29;9.33;;;7.17;;
2872;SDS011;1444;49.166;7.312;2023-07-24T03:51:00;10.50;;;7.57;;
2872;SDS011;1444;49.166;7.312;2023-07-24T03:53:27;15.10;;;8.27;;
2872;SDS011;1444;49.166;7.312;2023-07-24T03:55:54;12.53;;;8.00;;
2872;SDS011;1444;49.166;7.312;2023-07-24T03:58:21;12.80;;;7.97;;
2872;SDS011;1444;49.166;7.312;2023-07-24T04:00:49;12.33;;;8.40;;
2872;SDS011;1444;49.166;7.312;2023-07-24T04:03:16;10.50;;;7.33;;
2872;SDS011;1444;49.166;7.312;2023-07-24T04:05:43;17.07;;;10.23;;
2872;SDS011;1444;49.166;7.312;2023-07-24T04:08:10;10.30;;;7.90;;
2872;SDS011;1444;49.166;7.312;2023-07-24T04:10:37;14.47;;;10.40;;
2872;SDS011;1444;49.166;7.312;2023-07-24T04:13:04;10.87;;;7.40;;
2872;SDS011;1444;49.166;7.312;2023-07-24T04:15:30;16.37;;;9.27;;
2872;SDS011;1444;49.166;7.312;2023-07-24T04:17:59;13.30;;;8.23;;
2872;SDS011;1444;49.166;7.312;2023-07-24T04:20:25;10.03;;;6.90;;
2872;SDS011;1444;49.166;7.312;2023-07-24T04:22:52;10.07;;;7.77;;
2872;SDS011;1444;49.166;7.312;2023-07-24T04:25:19;11.50;;;8.10;;
2872;SDS011;1444;49.166;7.312;2023-07-24T04:27:46;16.23;;;9.43;;
2872;SDS011;1444;49.166;7.312;2023-07-24T04:30:13;10.60;;;7.07;;
2872;SDS011;1444;49.166;7.312;2023-07-24T04:32:40;19.00;;;11.87;;
2872;SDS011;1444;49.166;7.312;2023-07-24T04:35:08;9.77;;;7.60;;
2872;SDS011;1444;49.166;7.312;2023-07-24T04:37:35;24.80;;;11.13;;
2872;SDS011;1444;49.166;7.312;2023-07-24T04:40:02;11.30;;;7.03;;
2872;SDS011;1444;49.166;7.312;2023-07-24T04:42:30;10.60;;;7.60;;
2872;SDS011;1444;49.166;7.312;2023-07-24T04:44:57;10.10;;;7.17;;
2872;SDS011;1444;49.166;7.312;2023-07-24T04:47:24;13.97;;;7.50;;
2872;SDS011;1444;49.166;7.312;2023-07-24T04:49:50;10.50;;;7.30;;
2872;SDS011;1444;49.166;7.312;2023-07-24T04:52:19;7.10;;;4.97;;
2872;SDS011;1444;49.166;7.312;2023-07-24T04:54:46;8.70;;;6.23;;
2872;SDS011;1444;49.166;7.312;2023-07-24T04:57:12;11.57;;;6.10;;
2872;SDS011;1444;49.166;7.312;2023-07-24T04:59:39;8.50;;;5.90;;
2872;SDS011;1444;49.166;7.312;2023-07-24T05:02:06;8.60;;;6.53;;
2872;SDS011;1444;49.166;7.312;2023-07-24T05:04:33;13.17;;;9.20;;
2872;SDS011;1444;49.166;7.312;2023-07-24T05:07:00;8.03;;;6.30;;
2872;SDS011;1444;49.166;7.312;2023-07-24T05:09:28;9.73;;;7.23;;
2872;SDS011;1444;49.166;7.312;2023-07-24T05:11:55;12.33;;;8.20;;
2872;SDS011;1444;49.166;7.312;2023-07-24T05:14:22;8.10;;;6.80;;
2872;SDS011;1444;49.166;7.312;2023-07-24T05:16:49;11.17;;;8.03;;
2872;SDS011;1444;49.166;7.312;2023-07-24T05:19:16;13.67;;;6.30;;
2872;SDS011;1444;49.166;7.312;2023-07-24T05:21:42;12.67;;;7.97;;
2872;SDS011;1444;49.166;7.312;2023-07-24T05:24:09;8.63;;;5.63;;
2872;SDS011;1444;49.166;7.312;2023-07-24T05:26:38;11.23;;;7.53;;
2872;SDS011;1444;49.166;7.312;2023-07-24T05:29:04;6.73;;;5.20;;
2872;SDS011;1444;49.166;7.312;2023-07-24T05:31:33;8.53;;;6.33;;
2872;SDS011;1444;49.166;7.312;2023-07-24T05:34:00;10.40;;;6.60;;
2872;SDS011;1444;49.166;7.312;2023-07-24T05:36:28;6.13;;;5.13;;
2872;SDS011;1444;49.166;7.312;2023-07-24T05:38:55;11.40;;;6.50;;
2872;SDS011;1444;49.166;7.312;2023-07-24T05:41:22;6.40;;;5.60;;
2872;SDS011;1444;49.166;7.312;2023-07-24T05:43:51;13.50;;;5.90;;
2872;SDS011;1444;49.166;7.312;2023-07-24T05:46:19;4.97;;;4.40;;
2872;SDS011;1444;49.166;7.312;2023-07-24T05:48:45;6.70;;;5.40;;
2872;SDS011;1444;49.166;7.312;2023-07-24T05:51:12;22.37;;;6.33;;
2872;SDS011;1444;49.166;7.312;2023-07-24T05:53:39;7.37;;;5.23;;
2872;SDS011;1444;49.166;7.312;2023-07-24T05:56:06;8.07;;;4.97;;
2872;SDS011;1444;49.166;7.312;2023-07-24T05:58:33;10.70;;;6.47;;
2872;SDS011;1444;49.166;7.312;2023-07-24T06:01:01;9.00;;;7.30;;
2872;SDS011;1444;49.166;7.312;2023-07-24T06:03:28;9.27;;;7.07;;
2872;SDS011;1444;49.166;7.312;2023-07-24T06:05:55;8.80;;;6.93;;
2872;SDS011;1444;49.166;7.312;2023-07-24T06:08:22;11.27;;;6.43;;
2872;SDS011;1444;49.166;7.312;2023-07-24T06:10:48;11.50;;;8.33;;
2872;SDS011;1444;49.166;7.312;2023-07-24T06:13:16;9.20;;;7.53;;
2872;SDS011;1444;49.166;7.312;2023-07-24T06:15:43;18.70;;;10.43;;
2872;SDS011;1444;49.166;7.312;2023-07-24T06:18:12;13.50;;;8.07;;
2872;SDS011;1444;49.166;7.312;2023-07-24T06:20:38;17.00;;;11.20;;
2872;SDS011;1444;49.166;7.312;2023-07-24T06:23:05;11.23;;;8.90;;
2872;SDS011;1444;49.166;7.312;2023-07-24T06:25:33;14.23;;;11.00;;
2872;SDS011;1444;49.166;7.312;2023-07-24T06:27:59;11.27;;;9.60;;
2872;SDS011;1444;49.166;7.312;2023-07-24T06:30:26;12.60;;;10.23;;
2872;SDS011;1444;49.166;7.312;2023-07-24T06:32:53;19.40;;;9.77;;
2872;SDS011;1444;49.166;7.312;2023-07-24T06:35:21;11.23;;;9.10;;
2872;SDS011;1444;49.166;7.312;2023-07-24T06:37:48;12.33;;;10.00;;
2872;SDS011;1444;49.166;7.312;2023-07-24T06:40:15;16.30;;;10.83;;
2872;SDS011;1444;49.166;7.312;2023-07-24T06:42:42;13.40;;;10.50;;
2872;SDS011;1444;49.166;7.312;2023-07-24T06:45:11;12.40;;;8.97;;
2872;SDS011;1444;49.166;7.312;2023-07-24T06:47:38;11.27;;;9.17;;
2872;SDS011;1444;49.166;7.312;2023-07-24T06:50:05;10.13;;;7.87;;
2872;SDS011;1444;49.166;7.312;2023-07-24T06:52:34;13.00;;;9.70;;
2872;SDS011;1444;49.166;7.312;2023-07-24T06:55:01;8.53;;;7.50;;
2872;SDS011;1444;49.166;7.312;2023-07-24T06:57:28;8.53;;;7.17;;
2872;SDS011;1444;49.166;7.312;2023-07-24T06:59:55;10.20;;;8.37;;
2872;SDS011;1444;49.166;7.312;2023-07-24T07:02:22;9.07;;;7.97;;
2872;SDS011;1444;49.166;7.312;2023-07-24T07:04:49;15.07;;;7.90;;
2872;SDS011;1444;49.166;7.312;2023-07-24T07:07:16;7.27;;;6.50;;
2872;SDS011;1444;49.166;7.312;2023-07-24T07:09:44;10.37;;;8.13;;
2872;SDS011;1444;49.166;7.312;2023-07-24T07:12:11;9.20;;;7.80;;
2872;SDS011;1444;49.166;7.312;2023-07-24T07:14:37;12.20;;;8.80;;
2872;SDS011;1444;49.166;7.312;2023-07-24T07:17:04;7.77;;;7.00;;
2872;SDS011;1444;49.166;7.312;2023-07-24T07:19:31;8.17;;;7.37;;
2872;SDS011;1444;49.166;7.312;2023-07-24T07:21:58;10.13;;;8.17;;
2872;SDS011;1444;49.166;7.312;2023-07-24T07:24:25;12.87;;;7.57;;
2872;SDS011;1444;49.166;7.312;2023-07-24T07:26:53;14.40;;;7.57;;
2872;SDS011;1444;49.166;7.312;2023-07-24T07:29:20;7.67;;;6.63;;
2872;SDS011;1444;49.166;7.312;2023-07-24T07:31:47;8.40;;;7.53;;
2872;SDS011;1444;49.166;7.312;2023-07-24T07:34:14;9.37;;;7.47;;
2872;SDS011;1444;49.166;7.312;2023-07-24T07:36:40;10.33;;;8.13;;
2872;SDS011;1444;49.166;7.312;2023-07-24T07:39:07;17.00;;;6.80;;
2872;SDS011;1444;49.166;7.312;2023-07-24T07:41:34;12.03;;;7.77;;
2872;SDS011;1444;49.166;7.312;2023-07-24T07:44:03;9.67;;;6.67;;
2872;SDS011;1444;49.166;7.312;2023-07-24T07:46:30;8.40;;;6.37;;
2872;SDS011;1444;49.166;7.312;2023-07-24T07:48:55;7.20;;;5.80;;
2872;SDS011;1444;49.166;7.312;2023-07-24T07:51:22;6.20;;;5.60;;
2872;SDS011;1444;49.166;7.312;2023-07-24T07:53:50;10.70;;;5.40;;
2872;SDS011;1444;49.166;7.312;2023-07-24T07:56:17;7.37;;;6.57;;
2872;SDS011;1444;49.166;7.312;2023-07-24T07:58:44;12.90;;;7.17;;
2872;SDS011;1444;49.166;7.312;2023-07-24T08:01:12;7.10;;;6.23;;
2872;SDS011;1444;49.166;7.312;2023-07-24T08:03:39;9.13;;;7.07;;
2872;SDS011;1444;49.166;7.312;2023-07-24T08:06:06;7.37;;;6.57;;
2872;SDS011;1444;49.166;7.312;2023-07-24T08:08:33;8.60;;;7.43;;
2872;SDS011;1444;49.166;7.312;2023-07-24T08:11:03;7.80;;;5.33;;
2872;SDS011;1444;49.166;7.312;2023-07-24T08:13:31;7.03;;;6.20;;
2872;SDS011;1444;49.166;7.312;2023-07-24T08:15:58;6.47;;;5.83;;
2872;SDS011;1444;49.166;7.312;2023-07-24T08:18:28;7.47;;;6.43;;
2872;SDS011;1444;49.166;7.312;2023-07-24T08:20:55;8.57;;;5.93;;
2872;SDS011;1444;49.166;7.312;2023-07-24T08:23:22;11.60;;;6.40;;
2872;SDS011;1444;49.166;7.312;2023-07-24T08:28:19;7.13;;;6.33;;
2872;SDS011;1444;49.166;7.312;2023-07-24T08:30:46;7.73;;;6.93;;
2872;SDS011;1444;49.166;7.312;2023-07-24T08:33:22;6.47;;;5.63;;
2872;SDS011;1444;49.166;7.312;2023-07-24T08:35:58;7.20;;;6.50;;
2872;SDS011;1444;49.166;7.312;2023-07-24T08:38:25;6.80;;;5.93;;
2872;SDS011;1444;49.166;7.312;2023-07-24T08:40:59;12.57;;;6.63;;
2872;SDS011;1444;49.166;7.312;2023-07-24T08:43:30;9.60;;;6.70;;
2872;SDS011;1444;49.166;7.312;2023-07-24T08:45:58;6.50;;;5.90;;
2872;SDS011;1444;49.166;7.312;2023-07-24T08:48:26;8.90;;;5.60;;
2872;SDS011;1444;49.166;7.312;2023-07-24T08:51:00;8.57;;;6.13;;
2872;SDS011;1444;49.166;7.312;2023-07-24T08:53:27;14.53;;;7.03;;
2872;SDS011;1444;49.166;7.312;2023-07-24T08:55:55;9.43;;;7.07;;
2872;SDS011;1444;49.166;7.312;2023-07-24T08:58:22;8.70;;;6.73;;
2872;SDS011;1444;49.166;7.312;2023-07-24T09:00:49;7.80;;;6.70;;
2872;SDS011;1444;49.166;7.312;2023-07-24T09:03:17;9.33;;;7.87;;
2872;SDS011;1444;49.166;7.312;2023-07-24T09:05:44;15.70;;;9.27;;
2872;SDS011;1444;49.166;7.312;2023-07-24T09:08:13;7.10;;;6.40;;
2872;SDS011;1444;49.166;7.312;2023-07-24T09:10:42;10.33;;;9.33;;
2872;SDS011;1444;49.166;7.312;2023-07-24T09:13:11;9.83;;;8.40;;
2872;SDS011;1444;49.166;7.312;2023-07-24T09:15:41;10.40;;;8.57;;
2872;SDS011;1444;49.166;7.312;2023-07-24T09:18:09;7.73;;;6.90;;
2872;SDS011;1444;49.166;7.312;2023-07-24T09:20:40;12.20;;;9.40;;
2872;SDS011;1444;49.166;7.312;2023-07-24T09:23:08;11.67;;;7.23;;
2872;SDS011;1444;49.166;7.312;2023-07-24T09:25:38;9.63;;;8.73;;
2872;SDS011;1444;49.166;7.312;2023-07-24T09:28:09;10.83;;;7.37;;
2872;SDS011;1444;49.166;7.312;2023-07-24T09:30:36;13.20;;;9.93;;
2872;SDS011;1444;49.166;7.312;2023-07-24T09:33:03;8.03;;;7.23;;
2872;SDS011;1444;49.166;7.312;2023-07-24T09:35:30;9.43;;;8.37;;
2872;SDS011;1444;49.166;7.312;2023-07-24T09:38:03;9.40;;;5.90;;
2872;SDS011;1444;49.166;7.312;2023-07-24T09:40:39;8.63;;;7.30;;
2872;SDS011;1444;49.166;7.312;2023-07-24T09:43:17;9.40;;;8.20;;
2872;SDS011;1444;49.166;7.312;2023-07-24T09:45:44;10.87;;;8.97;;
2872;SDS011;1444;49.166;7.312;2023-07-24T09:48:14;11.50;;;7.10;;
2872;SDS011;1444;49.166;7.312;2023-07-24T09:50:43;10.83;;;9.60;;
2872;SDS011;1444;49.166;7.312;2023-07-24T09:53:13;15.67;;;9.20;;
2872;SDS011;1444;49.166;7.312;2023-07-24T09:55:49;9.93;;;8.93;;
2872;SDS011;1444;49.166;7.312;2023-07-24T09:58:18;15.07;;;7.47;;
2872;SDS011;1444;49.166;7.312;2023-07-24T10:00:46;10.20;;;9.20;;
2872;SDS011;1444;49.166;7.312;2023-07-24T10:03:16;10.40;;;8.30;;
2872;SDS011;1444;49.166;7.312;2023-07-24T10:05:45;12.07;;;8.93;;
2872;SDS011;1444;49.166;7.312;2023-07-24T10:08:13;8.93;;;7.60;;
2872;SDS011;1444;49.166;7.312;2023-07-24T10:10:41;12.83;;;9.30;;
2872;SDS011;1444;49.166;7.312;2023-07-24T10:13:09;13.30;;;8.47;;
2872;SDS011;1444;49.166;7.312;2023-07-24T10:15:39;10.80;;;8.80;;
2872;SDS011;1444;49.166;7.312;2023-07-24T10:18:07;8.80;;;7.90;;
2872;SDS011;1444;49.166;7.312;2023-07-24T10:20:35;11.37;;;10.17;;
2872;SDS011;1444;49.166;7.312;2023-07-24T10:23:03;10.60;;;7.93;;
2872;SDS011;1444;49.166;7.312;2023-07-24T10:25:32;10.73;;;7.27;;
2872;SDS011;1444;49.166;7.312;2023-07-24T10:28:02;9.53;;;7.00;;
2872;SDS011;1444;49.166;7.312;2023-07-24T10:30:34;10.30;;;7.67;;
2872;SDS011;1444;49.166;7.312;2023-07-24T10:33:08;8.60;;;7.70;;
2872;SDS011;1444;49.166;7.312;2023-07-24T10:35:37;13.40;;;10.30;;
2872;SDS011;1444;49.166;7.312;2023-07-24T10:38:04;7.70;;;6.90;;
2872;SDS011;1444;49.166;7.312;2023-07-24T10:40:32;10.60;;;6.97;;
2872;SDS011;1444;49.166;7.312;2023-07-24T10:43:00;10.80;;;7.97;;
2872;SDS011;1444;49.166;7.312;2023-07-24T10:45:46;15.70;;;9.27;;
2872;SDS011;1444;49.166;7.312;2023-07-24T10:48:14;9.37;;;8.20;;
2872;SDS011;1444;49.166;7.312;2023-07-24T10:50:42;11.07;;;9.33;;
2872;SDS011;1444;49.166;7.312;2023-07-24T10:53:10;14.17;;;9.00;;
2872;SDS011;1444;49.166;7.312;2023-07-24T10:55:37;13.20;;;11.37;;
2872;SDS011;1444;49.166;7.312;2023-07-24T10:58:05;11.47;;;9.20;;
2872;SDS011;1444;49.166;7.312;2023-07-24T11:00:32;10.97;;;9.83;;
2872;SDS011;1444;49.166;7.312;2023-07-24T11:03:00;15.87;;;9.53;;
2872;SDS011;1444;49.166;7.312;2023-07-24T11:05:27;11.00;;;8.80;;
2872;SDS011;1444;49.166;7.312;2023-07-24T11:07:54;12.60;;;9.33;;
2872;SDS011;1444;49.166;7.312;2023-07-24T11:10:22;11.80;;;10.43;;
2872;SDS011;1444;49.166;7.312;2023-07-24T11:12:50;12.20;;;10.10;;
2872;SDS011;1444;49.166;7.312;2023-07-24T11:15:23;11.80;;;10.50;;
2872;SDS011;1444;49.166;7.312;2023-07-24T11:17:52;11.73;;;10.50;;
2872;SDS011;1444;49.166;7.312;2023-07-24T11:20:21;12.20;;;10.90;;
2872;SDS011;1444;49.166;7.312;2023-07-24T11:22:48;15.17;;;12.00;;
2872;SDS011;1444;49.166;7.312;2023-07-24T11:25:15;12.90;;;10.80;;
2872;SDS011;1444;49.166;7.312;2023-07-24T11:27:43;15.83;;;12.43;;
2872;SDS011;1444;49.166;7.312;2023-07-24T11:30:12;18.43;;;12.70;;
2872;SDS011;1444;49.166;7.312;2023-07-24T11:32:45;13.90;;;12.40;;
2872;SDS011;1444;49.166;7.312;2023-07-24T11:35:12;13.30;;;11.90;;
2872;SDS011;1444;49.166;7.312;2023-07-24T11:37:41;13.67;;;12.30;;
2872;SDS011;1444;49.166;7.312;2023-07-24T11:40:08;13.40;;;10.57;;
2872;SDS011;1444;49.166;7.312;2023-07-24T11:42:38;19.00;;;11.40;;
2872;SDS011;1444;49.166;7.312;2023-07-24T11:45:05;11.10;;;9.73;;
2872;SDS011;1444;49.166;7.312;2023-07-24T11:47:44;13.73;;;10.93;;
2872;SDS011;1444;49.166;7.312;2023-07-24T11:50:12;10.27;;;9.27;;
2872;SDS011;1444;49.166;7.312;2023-07-24T11:52:41;12.87;;;11.53;;
2872;SDS011;1444;49.166;7.312;2023-07-24T11:55:09;13.37;;;9.80;;
2872;SDS011;1444;49.166;7.312;2023-07-24T11:57:37;13.37;;;11.67;;
2872;SDS011;1444;49.166;7.312;2023-07-24T12:00:04;10.27;;;9.27;;
2872;SDS011;1444;49.166;7.312;2023-07-24T12:02:35;13.17;;;11.10;;
2872;SDS011;1444;49.166;7.312;2023-07-24T12:05:01;12.57;;;10.20;;
2872;SDS011;1444;49.166;7.312;2023-07-24T12:07:32;15.47;;;11.30;;
2872;SDS011;1444;49.166;7.312;2023-07-24T12:10:02;13.20;;;10.20;;
2872;SDS011;1444;49.166;7.312;2023-07-24T12:12:42;12.60;;;11.30;;
2872;SDS011;1444;49.166;7.312;2023-07-24T12:15:10;15.00;;;11.10;;
2872;SDS011;1444;49.166;7.312;2023-07-24T12:17:38;11.93;;;9.80;;
2872;SDS011;1444;49.166;7.312;2023-07-24T12:20:06;12.27;;;10.40;;
2872;SDS011;1444;49.166;7.312;2023-07-24T12:22:35;14.63;;;12.67;;
2872;SDS011;1444;49.166;7.312;2023-07-24T12:25:04;12.23;;;10.37;;
2872;SDS011;1444;49.166;7.312;2023-07-24T12:27:32;13.30;;;11.90;;
2872;SDS011;1444;49.166;7.312;2023-07-24T12:29:59;13.50;;;10.10;;
2872;SDS011;1444;49.166;7.312;2023-07-24T12:32:26;13.53;;;11.23;;
2872;SDS011;1444;49.166;7.312;2023-07-24T12:34:53;15.33;;;10.93;;
2872;SDS011;1444;49.166;7.312;2023-07-24T12:37:20;19.70;;;12.23;;
2872;SDS011;1444;49.166;7.312;2023-07-24T12:39:47;14.43;;;10.20;;
2872;SDS011;1444;49.166;7.312;2023-07-24T12:42:16;14.90;;;11.03;;
2872;SDS011;1444;49.166;7.312;2023-07-24T12:44:43;16.80;;;11.87;;
2872;SDS011;1444;49.166;7.312;2023-07-24T12:47:10;13.37;;;10.97;;
2872;SDS011;1444;49.166;7.312;2023-07-24T12:49:37;13.93;;;12.53;;
2872;SDS011;1444;49.166;7.312;2023-07-24T12:52:05;12.93;;;11.00;;
2872;SDS011;1444;49.166;7.312;2023-07-24T12:54:32;18.27;;;12.83;;
2872;SDS011;1444;49.166;7.312;2023-07-24T12:56:59;13.50;;;10.23;;
2872;SDS011;1444;49.166;7.312;2023-07-24T12:59:27;15.37;;;11.20;;
2872;SDS011;1444;49.166;7.312;2023-07-24T13:01:55;12.07;;;9.70;;
2872;SDS011;1444;49.166;7.312;2023-07-24T13:04:22;10.80;;;8.30;;
2872;SDS011;1444;49.166;7.312;2023-07-24T13:06:49;11.53;;;8.93;;
2872;SDS011;1444;49.166;7.312;2023-07-24T13:09:17;8.90;;;7.43;;
2872;SDS011;1444;49.166;7.312;2023-07-24T13:11:45;9.50;;;8.33;;
2872;SDS011;1444;49.166;7.312;2023-07-24T13:14:13;7.13;;;6.53;;
2872;SDS011;1444;49.166;7.312;2023-07-24T13:16:42;9.20;;;7.07;;
2872;SDS011;1444;49.166;7.312;2023-07-24T13:19:09;7.27;;;6.57;;
2872;SDS011;1444;49.166;7.312;2023-07-24T13:21:36;10.17;;;8.77;;
2872;SDS011;1444;49.166;7.312;2023-07-24T13:24:05;7.57;;;6.70;;
2872;SDS011;1444;49.166;7.312;2023-07-24T13:26:31;10.50;;;7.67;;
2872;SDS011;1444;49.166;7.312;2023-07-24T13:28:58;7.80;;;6.53;;
2872;SDS011;1444;49.166;7.312;2023-07-24T13:31:25;6.70;;;6.10;;
2872;SDS011;1444;49.166;7.312;2023-07-24T13:33:54;5.87;;;5.30;;
2872;SDS011;1444;49.166;7.312;2023-07-24T13:36:21;7.17;;;5.50;;
2872;SDS011;1444;49.166;7.312;2023-07-24T13:38:48;7.27;;;6.67;;
2872;SDS011;1444;49.166;7.312;2023-07-24T13:41:15;5.20;;;4.70;;
2872;SDS011;1444;49.166;7.312;2023-07-24T13:43:42;8.13;;;6.57;;
2872;SDS011;1444;49.166;7.312;2023-07-24T13:46:09;5.33;;;4.80;;
2872;SDS011;1444;49.166;7.312;2023-07-24T13:48:36;5.77;;;5.27;;
2872;SDS011;1444;49.166;7.312;2023-07-24T13:51:04;5.00;;;4.57;;
2872;SDS011;1444;49.166;7.312;2023-07-24T13:53:31;5.00;;;4.50;;
2872;SDS011;1444;49.166;7.312;2023-07-24T13:55:58;4.60;;;4.20;;
2872;SDS011;1444;49.166;7.312;2023-07-24T13:58:24;6.97;;;4.80;;
2872;SDS011;1444;49.166;7.312;2023-07-24T14:00:51;4.33;;;3.77;;
2872;SDS011;1444;49.166;7.312;2023-07-24T14:03:18;4.47;;;4.07;;
2872;SDS011;1444;49.166;7.312;2023-07-24T14:05:45;6.80;;;5.97;;
2872;SDS011;1444;49.166;7.312;2023-07-24T14:08:13;5.27;;;4.87;;
2872;SDS011;1444;49.166;7.312;2023-07-24T14:10:40;10.87;;;7.00;;
2872;SDS011;1444;49.166;7.312;2023-07-24T14:13:07;6.17;;;4.77;;
2872;SDS011;1444;49.166;7.312;2023-07-24T14:15:34;6.37;;;5.40;;
2872;SDS011;1444;49.166;7.312;2023-07-24T14:18:01;5.23;;;4.73;;
2872;SDS011;1444;49.166;7.312;2023-07-24T14:20:27;8.90;;;4.83;;
2872;SDS011;1444;49.166;7.312;2023-07-24T14:22:54;4.30;;;3.77;;
2872;SDS011;1444;49.166;7.312;2023-07-24T14:25:22;5.70;;;5.20;;
2872;SDS011;1444;49.166;7.312;2023-07-24T14:27:49;5.70;;;4.53;;
2872;SDS011;1444;49.166;7.312;2023-07-24T14:30:16;6.77;;;5.07;;
2872;SDS011;1444;49.166;7.312;2023-07-24T14:32:43;7.43;;;6.70;;
2872;SDS011;1444;49.166;7.312;2023-07-24T14:35:10;6.20;;;5.17;;
2872;SDS011;1444;49.166;7.312;2023-07-24T14:37:37;6.83;;;6.23;;
2872;SDS011;1444;49.166;7.312;2023-07-24T14:40:04;3.30;;;3.03;;
2872;SDS011;1444;49.166;7.312;2023-07-24T14:42:33;5.80;;;5.20;;
2872;SDS011;1444;49.166;7.312;2023-07-24T14:45:00;5.10;;;4.33;;
2872;SDS011;1444;49.166;7.312;2023-07-24T14:47:27;3.87;;;3.50;;
2872;SDS011;1444;49.166;7.312;2023-07-24T14:49:54;4.57;;;3.20;;
2872;SDS011;1444;49.166;7.312;2023-07-24T14:52:23;4.87;;;4.47;;
2872;SDS011;1444;49.166;7.312;2023-07-24T14:54:50;4.70;;;4.30;;
2872;SDS011;1444;49.166;7.312;2023-07-24T14:57:17;3.27;;;2.97;;
2872;SDS011;1444;49.166;7.312;2023-07-24T14:59:45;5.87;;;4.60;;
2872;SDS011;1444;49.166;7.312;2023-07-24T15:02:12;4.60;;;3.50;;
2872;SDS011;1444;49.166;7.312;2023-07-24T15:04:38;11.83;;;5.60;;
2872;SDS011;1444;49.166;7.312;2023-07-24T15:07:05;3.57;;;3.27;;
2872;SDS011;1444;49.166;7.312;2023-07-24T15:09:32;4.43;;;4.10;;
2872;SDS011;1444;49.166;7.312;2023-07-24T15:11:59;4.70;;;3.67;;
2872;SDS011;1444;49.166;7.312;2023-07-24T15:14:26;4.07;;;3.70;;